createdAt,value
2017-08-28T00:00:42.989Z,3.83
2017-08-28T00:03:09.717Z,4.37
2017-08-28T00:05:36.424Z,3.83
2017-08-28T00:08:03.167Z,3.63
2017-08-28T00:10:29.900Z,3.90
2017-08-28T00:12:56.621Z,3.60
2017-08-28T00:15:23.348Z,3.70
2017-08-28T00:17:50.086Z,3.97
2017-08-28T00:20:16.792Z,3.60
2017-08-28T00:22:43.522Z,3.60
2017-08-28T00:25:10.220Z,3.97
2017-08-28T00:27:37.008Z,4.10
2017-08-28T00:30:03.780Z,3.87
2017-08-28T00:32:30.483Z,3.83
2017-08-28T00:34:57.202Z,4.20
2017-08-28T00:37:23.933Z,4.00
2017-08-28T00:39:50.653Z,4.30
2017-08-28T00:42:17.356Z,4.10
2017-08-28T00:44:44.112Z,3.90
2017-08-28T00:47:10.834Z,3.63
2017-08-28T00:49:37.554Z,4.00
2017-08-28T00:52:04.310Z,4.20
2017-08-28T00:54:31.046Z,4.33
2017-08-28T00:56:57.772Z,3.97
2017-08-28T00:59:24.496Z,4.23
2017-08-28T01:01:51.212Z,4.87
2017-08-28T01:04:17.918Z,4.80
2017-08-28T01:06:44.673Z,4.00
2017-08-28T01:09:11.384Z,3.30
2017-08-28T01:11:38.096Z,3.93
2017-08-28T01:14:04.825Z,4.80
2017-08-28T01:16:31.547Z,3.83
2017-08-28T01:18:58.243Z,4.10
2017-08-28T01:21:25.118Z,3.90
2017-08-28T01:23:51.829Z,3.73
2017-08-28T01:26:18.539Z,4.00
2017-08-28T01:28:45.271Z,4.50
2017-08-28T01:31:11.977Z,4.00
2017-08-28T01:33:38.688Z,4.50
2017-08-28T01:36:05.413Z,4.00
2017-08-28T01:38:32.110Z,3.43
2017-08-28T01:40:58.806Z,3.43
2017-08-28T01:43:25.563Z,3.10
2017-08-28T01:45:52.271Z,3.33
2017-08-28T01:48:18.967Z,3.70
2017-08-28T01:50:45.691Z,3.30
2017-08-28T01:53:12.389Z,3.37
2017-08-28T01:55:39.158Z,3.57
2017-08-28T01:58:05.925Z,3.80
2017-08-28T02:00:32.635Z,3.87
2017-08-28T02:02:59.334Z,3.47
2017-08-28T02:05:26.083Z,3.93
2017-08-28T02:07:52.817Z,3.60
2017-08-28T02:10:19.528Z,3.67
2017-08-28T02:12:46.263Z,2.90
2017-08-28T02:15:12.977Z,3.43
2017-08-28T02:17:39.692Z,3.50
2017-08-28T02:20:06.447Z,3.10
2017-08-28T02:22:33.248Z,3.63
2017-08-28T02:24:59.961Z,3.83
2017-08-28T02:27:26.679Z,3.70
2017-08-28T02:29:53.480Z,3.50
2017-08-28T02:32:20.191Z,3.33
2017-08-28T02:34:46.934Z,3.50
2017-08-28T02:37:13.645Z,3.37
2017-08-28T02:39:40.344Z,3.77
2017-08-28T02:42:07.090Z,3.47
2017-08-28T02:44:33.791Z,3.60
2017-08-28T02:47:00.488Z,3.13
2017-08-28T02:49:27.204Z,2.97
2017-08-28T02:51:53.907Z,4.00
2017-08-28T02:54:20.609Z,3.40
2017-08-28T02:56:47.355Z,3.07
2017-08-28T02:59:14.056Z,3.87
2017-08-28T03:01:40.759Z,3.10
2017-08-28T03:04:07.487Z,3.67
2017-08-28T03:06:34.194Z,3.67
2017-08-28T03:09:00.915Z,3.10
2017-08-28T03:11:27.677Z,3.60
2017-08-28T03:13:54.400Z,3.37
2017-08-28T03:16:21.205Z,3.57
2017-08-28T03:18:47.922Z,4.17
2017-08-28T03:21:14.620Z,3.23
2017-08-28T03:23:41.330Z,3.50
2017-08-28T03:26:08.056Z,3.70
2017-08-28T03:28:34.759Z,3.47
2017-08-28T03:31:01.469Z,7.90
2017-08-28T03:33:28.216Z,8.63
2017-08-28T03:35:54.955Z,7.80
2017-08-28T03:38:21.692Z,6.13
2017-08-28T03:40:48.461Z,6.77
2017-08-28T03:43:15.224Z,5.97
2017-08-28T03:45:41.979Z,6.50
2017-08-28T03:48:08.761Z,5.40
2017-08-28T03:50:35.500Z,6.93
2017-08-28T03:53:02.240Z,5.37
2017-08-28T03:55:29.004Z,5.60
2017-08-28T03:57:55.749Z,5.83
2017-08-28T04:00:22.501Z,5.93
2017-08-28T04:02:49.266Z,5.00
2017-08-28T04:05:16.022Z,6.00
2017-08-28T04:07:42.764Z,5.27
2017-08-28T04:10:09.513Z,4.80
2017-08-28T04:12:36.233Z,5.40
2017-08-28T04:15:02.958Z,5.03
2017-08-28T04:17:29.689Z,4.47
2017-08-28T04:19:56.420Z,4.70
2017-08-28T04:22:23.127Z,4.50
2017-08-28T04:24:49.901Z,5.00
2017-08-28T04:27:16.654Z,4.33
2017-08-28T04:29:43.347Z,4.83
2017-08-28T04:32:10.082Z,4.87
2017-08-28T04:34:36.786Z,4.80
2017-08-28T04:37:03.493Z,5.40
2017-08-28T04:39:30.223Z,4.83
2017-08-28T04:41:56.963Z,5.47
2017-08-28T04:44:23.660Z,5.13
2017-08-28T04:46:50.391Z,5.50
2017-08-28T04:49:17.101Z,4.90
2017-08-28T04:51:43.820Z,5.23
2017-08-28T04:54:10.542Z,4.63
2017-08-28T04:56:37.255Z,4.40
2017-08-28T04:59:03.967Z,4.93
2017-08-28T05:01:30.725Z,5.20
2017-08-28T05:03:57.428Z,5.83
2017-08-28T05:06:24.134Z,4.50
2017-08-28T05:08:50.882Z,5.07
2017-08-28T05:11:17.591Z,5.00
2017-08-28T05:13:44.305Z,5.00
2017-08-28T05:16:11.028Z,4.93
2017-08-28T05:18:37.742Z,4.90
2017-08-28T05:21:04.434Z,5.30
2017-08-28T05:23:31.162Z,4.90
2017-08-28T05:25:57.846Z,4.70
2017-08-28T05:28:24.543Z,5.47
2017-08-28T05:30:51.272Z,5.30
2017-08-28T05:33:17.982Z,5.63
2017-08-28T05:35:44.744Z,5.17
2017-08-28T05:38:11.515Z,5.90
2017-08-28T05:40:38.231Z,5.50
2017-08-28T05:43:04.934Z,5.80
2017-08-28T05:45:31.658Z,5.17
2017-08-28T05:47:58.386Z,5.20
2017-08-28T05:50:25.084Z,5.30
2017-08-28T05:52:51.819Z,5.97
2017-08-28T05:55:18.519Z,4.63
2017-08-28T05:57:45.241Z,5.47
2017-08-28T06:00:11.985Z,5.80
2017-08-28T06:02:38.692Z,5.43
2017-08-28T06:05:05.397Z,5.03
2017-08-28T06:07:32.119Z,5.33
2017-08-28T06:09:58.825Z,5.13
2017-08-28T06:12:25.524Z,4.83
2017-08-28T06:14:52.249Z,4.77
2017-08-28T06:17:18.980Z,5.70
2017-08-28T06:19:45.696Z,5.07
2017-08-28T06:22:12.456Z,5.07
2017-08-28T06:24:39.249Z,4.50
2017-08-28T06:27:05.967Z,4.43
2017-08-28T06:29:32.758Z,4.80
2017-08-28T06:31:59.462Z,5.40
2017-08-28T06:34:26.245Z,5.47
2017-08-28T06:36:52.977Z,5.30
2017-08-28T06:39:19.770Z,5.33
2017-08-28T06:41:46.503Z,5.20
2017-08-28T06:44:13.311Z,5.80
2017-08-28T06:46:40.082Z,5.77
2017-08-28T06:49:06.891Z,5.43
2017-08-28T06:51:33.615Z,5.30
2017-08-28T06:54:00.399Z,5.43
2017-08-28T06:56:27.099Z,4.80
2017-08-28T06:58:53.851Z,6.00
2017-08-28T07:01:20.551Z,6.37
2017-08-28T07:03:47.252Z,6.30
2017-08-28T07:06:13.992Z,6.60
2017-08-28T07:08:40.729Z,6.60
2017-08-28T07:11:07.440Z,6.13
2017-08-28T07:13:34.180Z,7.73
2017-08-28T07:16:00.927Z,6.90
2017-08-28T07:18:27.700Z,7.13
2017-08-28T07:20:54.435Z,8.00
2017-08-28T07:23:21.218Z,7.73
2017-08-28T07:25:47.939Z,7.63
2017-08-28T07:28:14.659Z,6.77
2017-08-28T07:30:41.360Z,7.53
2017-08-28T07:33:08.066Z,8.13
2017-08-28T07:35:34.785Z,7.53
2017-08-28T07:38:01.494Z,7.90
2017-08-28T07:40:28.202Z,8.83
2017-08-28T07:42:55.033Z,7.50
2017-08-28T07:45:21.734Z,9.03
2017-08-28T07:47:48.450Z,7.23
2017-08-28T07:50:15.167Z,6.90
2017-08-28T07:52:41.879Z,6.47
2017-08-28T07:55:08.695Z,8.30
2017-08-28T07:57:35.442Z,7.80
2017-08-28T08:00:02.140Z,8.10
2017-08-28T08:02:28.833Z,7.80
2017-08-28T08:04:55.553Z,7.73
2017-08-28T08:07:22.261Z,8.57
2017-08-28T08:09:48.968Z,7.80
2017-08-28T08:12:15.708Z,8.07
2017-08-28T08:14:42.394Z,8.30
2017-08-28T08:17:09.114Z,7.70
2017-08-28T08:19:35.838Z,8.37
2017-08-28T08:22:02.526Z,8.67
2017-08-28T08:24:29.219Z,8.10
2017-08-28T08:26:55.926Z,8.90
2017-08-28T08:29:22.621Z,9.57
2017-08-28T08:31:49.329Z,8.40
2017-08-28T08:34:21.713Z,8.00
2017-08-28T08:36:48.405Z,8.53
2017-08-28T08:39:15.090Z,7.87
2017-08-28T08:41:41.838Z,9.07
2017-08-28T08:44:08.564Z,8.60
2017-08-28T08:46:35.257Z,8.77
2017-08-28T08:49:02.110Z,7.73
2017-08-28T08:51:28.790Z,7.70
2017-08-28T08:53:55.507Z,7.63
2017-08-28T08:56:22.226Z,8.40
2017-08-28T08:58:48.912Z,7.90
2017-08-28T09:01:15.606Z,7.10
2017-08-28T09:03:42.367Z,8.57
2017-08-28T09:06:09.061Z,8.00
2017-08-28T09:08:35.757Z,8.20
2017-08-28T09:11:02.496Z,8.63
2017-08-28T09:13:29.182Z,7.90
2017-08-28T09:15:55.880Z,9.10
2017-08-28T09:18:22.618Z,8.73
2017-08-28T09:20:49.332Z,7.83
2017-08-28T09:23:16.028Z,8.40
2017-08-28T09:25:42.741Z,8.03
2017-08-28T09:28:09.437Z,8.33
2017-08-28T09:30:36.124Z,8.23
2017-08-28T09:33:02.838Z,8.20
2017-08-28T09:35:29.534Z,9.13
2017-08-28T09:37:56.261Z,7.57
2017-08-28T09:40:22.982Z,8.93
2017-08-28T09:42:49.673Z,7.97
2017-08-28T09:45:16.374Z,8.27
2017-08-28T09:47:43.129Z,8.77
2017-08-28T09:50:09.817Z,9.03
2017-08-28T09:52:36.513Z,8.90
2017-08-28T09:55:03.299Z,8.10
2017-08-28T09:57:30.001Z,8.23
2017-08-28T09:59:56.705Z,8.70
2017-08-28T10:02:23.516Z,8.13
2017-08-28T10:04:50.320Z,9.27
2017-08-28T10:07:17.167Z,8.97
2017-08-28T10:09:43.907Z,9.77
2017-08-28T10:12:10.704Z,8.50
2017-08-28T10:14:37.407Z,9.33
2017-08-28T10:17:04.231Z,8.30
2017-08-28T10:19:31.013Z,9.67
2017-08-28T10:21:57.764Z,7.17
2017-08-28T10:24:24.553Z,7.40
2017-08-28T10:26:50.939Z,7.83
2017-08-28T10:29:17.660Z,8.67
2017-08-28T10:31:44.450Z,8.70
2017-08-28T10:34:11.164Z,8.30
2017-08-28T10:36:37.864Z,7.90
2017-08-28T10:39:04.610Z,8.77
2017-08-28T10:41:31.332Z,7.90
2017-08-28T10:43:58.027Z,8.20
2017-08-28T10:46:24.761Z,8.60
2017-08-28T10:48:51.472Z,8.20
2017-08-28T10:51:18.180Z,8.10
2017-08-28T10:53:44.914Z,8.03
2017-08-28T10:56:11.609Z,7.70
2017-08-28T10:58:38.305Z,8.40
2017-08-28T11:01:05.049Z,9.03
2017-08-28T11:03:31.745Z,8.73
2017-08-28T11:05:58.447Z,7.80
2017-08-28T11:08:25.168Z,8.10
2017-08-28T11:10:51.861Z,8.53
2017-08-28T11:13:18.554Z,9.20
2017-08-28T11:15:45.305Z,8.67
2017-08-28T11:18:12.005Z,8.83
2017-08-28T11:20:38.718Z,8.50
2017-08-28T11:23:05.451Z,8.20
2017-08-28T11:25:32.171Z,8.50
2017-08-28T11:27:58.881Z,8.57
2017-08-28T11:30:25.594Z,8.63
2017-08-28T11:32:52.278Z,8.87
2017-08-28T11:35:18.985Z,8.40
2017-08-28T11:37:45.731Z,10.07
2017-08-28T11:40:12.436Z,7.63
2017-08-28T11:42:39.126Z,8.60
2017-08-28T11:45:05.998Z,8.77
2017-08-28T11:47:32.790Z,8.37
2017-08-28T11:49:59.515Z,9.20
2017-08-28T11:52:26.268Z,9.63
2017-08-28T11:54:53.038Z,9.20
2017-08-28T11:57:19.739Z,8.83
2017-08-28T11:59:46.478Z,8.33
2017-08-28T12:02:13.190Z,9.63
2017-08-28T12:04:39.920Z,9.47
2017-08-28T12:07:06.663Z,8.97
2017-08-28T12:09:33.370Z,8.60
2017-08-28T12:12:00.147Z,9.20
2017-08-28T12:14:26.895Z,9.53
2017-08-28T12:16:53.624Z,9.63
2017-08-28T12:19:20.355Z,9.80
2017-08-28T12:21:47.074Z,8.97
2017-08-28T12:24:13.791Z,10.07
2017-08-28T12:26:40.492Z,9.60
2017-08-28T12:29:07.200Z,8.70
2017-08-28T12:31:33.890Z,9.70
2017-08-28T12:34:00.592Z,11.20
2017-08-28T12:36:27.309Z,9.37
2017-08-28T12:38:54.012Z,10.03
2017-08-28T12:41:20.746Z,10.50
2017-08-28T12:43:47.475Z,9.90
2017-08-28T12:46:14.192Z,10.07
2017-08-28T12:48:40.908Z,9.43
2017-08-28T12:51:07.627Z,10.37
2017-08-28T12:53:34.330Z,10.13
2017-08-28T12:56:01.042Z,10.47
2017-08-28T12:58:27.783Z,11.73
2017-08-28T13:00:54.485Z,10.93
2017-08-28T13:03:21.183Z,10.53
2017-08-28T13:05:47.908Z,10.80
2017-08-28T13:08:14.606Z,11.20
2017-08-28T13:10:41.318Z,11.53
2017-08-28T13:13:08.040Z,10.80
2017-08-28T13:15:34.741Z,11.10
2017-08-28T13:18:01.443Z,11.20
2017-08-28T13:20:28.219Z,12.17
2017-08-28T13:22:54.938Z,11.97
2017-08-28T13:25:21.655Z,11.63
2017-08-28T13:27:48.383Z,11.30
2017-08-28T13:30:15.096Z,10.33
2017-08-28T13:32:41.827Z,10.77
2017-08-28T13:35:08.577Z,11.73
2017-08-28T13:37:35.290Z,12.47
2017-08-28T13:40:01.990Z,11.70
2017-08-28T13:42:28.756Z,11.57
2017-08-28T13:44:55.469Z,13.07
2017-08-28T13:47:22.173Z,12.40
2017-08-28T13:49:48.896Z,12.20
2017-08-28T13:52:15.617Z,10.47
2017-08-28T13:54:42.311Z,10.13
2017-08-28T13:57:09.028Z,11.33
2017-08-28T13:59:35.725Z,9.80
2017-08-28T14:02:02.409Z,9.33
2017-08-28T14:04:29.132Z,9.07
2017-08-28T14:06:55.831Z,9.30
2017-08-28T14:09:22.523Z,9.30
2017-08-28T14:11:49.249Z,9.80
2017-08-28T14:14:15.950Z,9.90
2017-08-28T14:16:42.642Z,9.77
2017-08-28T14:19:09.362Z,10.23
2017-08-28T14:21:36.056Z,10.03
2017-08-28T14:24:02.774Z,10.80
2017-08-28T14:26:29.508Z,9.00
2017-08-28T14:28:56.207Z,9.37
2017-08-28T14:31:22.914Z,8.93
2017-08-28T14:33:49.640Z,9.43
2017-08-28T14:36:16.371Z,10.60
2017-08-28T14:38:43.074Z,9.60
2017-08-28T14:41:09.807Z,9.97
2017-08-28T14:43:36.551Z,9.50
2017-08-28T14:46:03.260Z,8.10
2017-08-28T14:48:29.994Z,8.10
2017-08-28T14:50:56.687Z,7.67
2017-08-28T14:53:23.406Z,7.37
2017-08-28T14:55:50.146Z,6.03
2017-08-28T14:58:16.859Z,6.40
2017-08-28T15:00:43.558Z,6.30
2017-08-28T15:03:10.276Z,6.37
2017-08-28T15:05:36.961Z,6.80
2017-08-28T15:08:03.660Z,7.47
2017-08-28T15:10:30.378Z,7.10
2017-08-28T15:12:57.089Z,7.00
2017-08-28T15:15:23.807Z,7.80
2017-08-28T15:17:50.519Z,7.60
2017-08-28T15:20:17.213Z,8.00
2017-08-28T15:22:43.905Z,9.13
2017-08-28T15:25:10.642Z,9.37
2017-08-28T15:27:37.341Z,8.90
2017-08-28T15:30:04.154Z,8.43
2017-08-28T15:32:30.905Z,8.10
2017-08-28T15:34:57.697Z,9.50
2017-08-28T15:37:24.398Z,8.70
2017-08-28T15:39:51.161Z,8.60
2017-08-28T15:42:17.880Z,9.30
2017-08-28T15:44:49.322Z,8.77
2017-08-28T15:47:19.966Z,9.37
2017-08-28T15:49:46.710Z,9.60
2017-08-28T15:52:13.414Z,7.80
2017-08-28T15:54:40.151Z,8.17
2017-08-28T15:57:06.849Z,8.20
2017-08-28T15:59:33.584Z,7.83
2017-08-28T16:02:00.310Z,8.10
2017-08-28T16:04:27.063Z,7.90
2017-08-28T16:06:53.760Z,6.93
2017-08-28T16:09:20.498Z,7.30
2017-08-28T16:11:47.214Z,8.20
2017-08-28T16:14:13.942Z,6.37
2017-08-28T16:16:40.679Z,8.00
2017-08-28T16:19:07.387Z,6.70
2017-08-28T16:21:34.122Z,6.97
2017-08-28T16:24:00.858Z,7.43
2017-08-28T16:26:27.585Z,7.60
2017-08-28T16:28:54.316Z,7.27
2017-08-28T16:31:21.064Z,7.13
2017-08-28T16:33:47.792Z,7.10
2017-08-28T16:36:14.501Z,7.80
2017-08-28T16:38:41.231Z,9.60
2017-08-28T16:41:07.931Z,10.57
2017-08-28T16:43:34.684Z,9.70
2017-08-28T16:46:01.419Z,8.10
2017-08-28T16:48:28.136Z,7.23
2017-08-28T16:50:54.875Z,7.17
2017-08-28T16:53:21.599Z,6.67
2017-08-28T16:55:48.351Z,6.57
2017-08-28T16:58:15.054Z,6.60
2017-08-28T17:00:41.793Z,5.90
2017-08-28T17:03:08.492Z,5.90
2017-08-28T17:05:35.202Z,6.33
2017-08-28T17:08:01.969Z,8.17
2017-08-28T17:10:28.687Z,6.80
2017-08-28T17:12:55.383Z,7.47
2017-08-28T17:15:22.132Z,6.87
2017-08-28T17:17:48.831Z,6.27
2017-08-28T17:20:15.562Z,6.60
2017-08-28T17:22:46.070Z,5.93
2017-08-28T17:25:12.784Z,5.73
2017-08-28T17:27:39.494Z,7.10
2017-08-28T17:30:06.220Z,5.17
2017-08-28T17:32:32.924Z,5.80
2017-08-28T17:34:59.623Z,5.70
2017-08-28T17:37:26.456Z,5.10
2017-08-28T17:39:53.152Z,5.20
2017-08-28T17:42:19.855Z,5.60
2017-08-28T17:44:46.619Z,5.93
2017-08-28T17:47:13.335Z,5.33
2017-08-28T17:49:40.034Z,5.23
2017-08-28T17:52:06.822Z,5.63
2017-08-28T17:54:33.558Z,5.47
2017-08-28T17:57:00.284Z,5.33
2017-08-28T17:59:27.019Z,5.53
2017-08-28T18:01:53.726Z,5.97
2017-08-28T18:04:20.471Z,5.67
2017-08-28T18:06:47.204Z,5.70
2017-08-28T18:09:13.953Z,5.73
2017-08-28T18:11:40.657Z,6.17
2017-08-28T18:14:07.393Z,6.40
2017-08-28T18:16:34.133Z,5.93
2017-08-28T18:19:00.891Z,6.40
2017-08-28T18:21:27.687Z,5.90
2017-08-28T18:23:54.414Z,6.47
2017-08-28T18:26:21.290Z,6.60
2017-08-28T18:28:48.650Z,7.10
2017-08-28T18:31:15.799Z,5.93
2017-08-28T18:33:42.552Z,6.53
2017-08-28T18:36:09.330Z,6.70
2017-08-28T18:38:36.052Z,6.17
2017-08-28T18:41:02.784Z,6.23
2017-08-28T18:43:29.536Z,7.00
2017-08-28T18:45:56.287Z,7.40
2017-08-28T18:48:23.016Z,7.77
2017-08-28T18:50:49.801Z,7.40
2017-08-28T18:53:16.504Z,6.87
2017-08-28T18:55:43.234Z,6.63
2017-08-28T18:58:09.996Z,7.30
2017-08-28T19:00:36.779Z,6.67
2017-08-28T19:03:03.496Z,7.23
2017-08-28T19:05:30.241Z,6.60
2017-08-28T19:07:56.991Z,6.70
2017-08-28T19:10:23.728Z,6.87
2017-08-28T19:15:40.563Z,7.37
2017-08-28T19:18:07.351Z,6.17
2017-08-28T19:20:34.088Z,7.37
2017-08-28T19:23:00.811Z,6.60
2017-08-28T19:25:27.612Z,6.93
2017-08-28T19:27:54.344Z,6.63
2017-08-28T19:30:21.051Z,6.70
2017-08-28T19:32:47.782Z,6.63
2017-08-28T19:35:14.533Z,5.90
2017-08-28T19:37:41.266Z,7.13
2017-08-28T19:40:08.037Z,7.30
2017-08-28T19:42:35.708Z,7.53
2017-08-28T19:45:02.448Z,7.17
2017-08-28T19:47:29.199Z,7.10
2017-08-28T19:49:55.933Z,7.20
2017-08-28T19:52:22.657Z,7.93
2017-08-28T19:54:49.426Z,7.07
2017-08-28T19:57:16.156Z,6.57
2017-08-28T19:59:42.864Z,6.63
2017-08-28T20:02:09.652Z,7.20
2017-08-28T20:04:36.406Z,6.53
2017-08-28T20:07:03.149Z,7.33
2017-08-28T20:09:29.887Z,7.30
2017-08-28T20:11:56.610Z,7.30
2017-08-28T20:14:23.322Z,7.00
2017-08-28T20:16:50.090Z,6.87
2017-08-28T20:19:16.858Z,7.43
2017-08-28T20:21:43.604Z,6.57
2017-08-28T20:24:10.374Z,7.27
2017-08-28T20:26:37.099Z,6.57
2017-08-28T20:29:03.835Z,7.37
2017-08-28T20:31:30.569Z,6.33
2017-08-28T20:33:57.282Z,7.43
2017-08-28T20:36:24.015Z,7.77
2017-08-28T20:38:50.847Z,6.97
2017-08-28T20:41:17.543Z,7.10
2017-08-28T20:43:44.280Z,6.13
2017-08-28T20:46:11.054Z,6.93
2017-08-28T20:48:37.761Z,6.33
2017-08-28T20:51:04.494Z,7.50
2017-08-28T20:53:31.227Z,7.30
2017-08-28T20:55:57.968Z,7.57
2017-08-28T20:58:24.697Z,7.77
2017-08-28T21:00:51.448Z,9.50
2017-08-28T21:03:18.203Z,8.87
2017-08-28T21:05:44.903Z,8.67
2017-08-28T21:08:11.643Z,8.10
2017-08-28T21:10:38.385Z,7.70
2017-08-28T21:13:05.110Z,8.00
2017-08-28T21:15:31.845Z,8.20
2017-08-28T21:17:58.550Z,7.53
2017-08-28T21:20:25.254Z,7.60
2017-08-28T21:22:51.988Z,7.93
2017-08-28T21:25:18.751Z,8.60
2017-08-28T21:27:45.465Z,8.20
2017-08-28T21:30:12.224Z,8.63
2017-08-28T21:32:38.945Z,8.57
2017-08-28T21:35:05.657Z,8.73
2017-08-28T21:37:32.376Z,8.50
2017-08-28T21:39:59.098Z,8.63
2017-08-28T21:42:25.819Z,7.87
2017-08-28T21:44:52.578Z,10.07
2017-08-28T21:47:19.285Z,9.40
2017-08-28T21:49:45.990Z,8.53
2017-08-28T21:52:12.735Z,10.20
2017-08-28T21:54:39.449Z,7.60
2017-08-28T21:57:06.151Z,6.90
2017-08-28T21:59:32.860Z,6.70
2017-08-28T22:01:59.606Z,7.00
2017-08-28T22:04:26.326Z,7.53
2017-08-28T22:06:53.063Z,7.30
2017-08-28T22:09:19.773Z,7.73
2017-08-28T22:11:46.506Z,7.53
2017-08-28T22:14:13.254Z,8.93
2017-08-28T22:16:39.991Z,8.53
2017-08-28T22:19:06.706Z,8.27
2017-08-28T22:21:33.424Z,8.50
2017-08-28T22:24:00.174Z,12.17
2017-08-28T22:26:26.897Z,9.10
2017-08-28T22:28:53.640Z,8.20
2017-08-28T22:31:20.354Z,7.87
2017-08-28T22:33:47.054Z,8.80
2017-08-28T22:36:13.766Z,7.67
2017-08-28T22:38:40.495Z,9.77
2017-08-28T22:41:07.195Z,8.13
2017-08-28T22:43:33.937Z,10.00
2017-08-28T22:46:00.661Z,9.47
2017-08-28T22:48:27.366Z,9.50
2017-08-28T22:50:54.108Z,9.70
2017-08-28T22:53:20.839Z,9.83
2017-08-28T22:55:47.555Z,9.47
2017-08-28T22:58:14.281Z,10.93
2017-08-28T23:00:40.992Z,10.00
2017-08-28T23:03:07.693Z,8.77
2017-08-28T23:05:34.432Z,10.03
2017-08-28T23:08:01.151Z,9.87
2017-08-28T23:10:27.855Z,9.00
2017-08-28T23:12:54.615Z,9.03
2017-08-28T23:15:21.375Z,9.33
2017-08-28T23:17:48.089Z,9.40
2017-08-28T23:20:14.865Z,9.47
2017-08-28T23:22:41.578Z,9.10
2017-08-28T23:25:08.291Z,8.60
2017-08-28T23:27:35.058Z,9.23
2017-08-28T23:30:01.768Z,8.80
2017-08-28T23:32:28.499Z,9.73
2017-08-28T23:34:55.226Z,9.00
2017-08-28T23:37:21.955Z,9.00
2017-08-28T23:39:48.674Z,9.17
2017-08-28T23:42:15.402Z,9.00
2017-08-28T23:44:42.132Z,9.10
2017-08-28T23:47:08.854Z,9.67
2017-08-28T23:49:35.590Z,8.50
2017-08-28T23:52:02.325Z,11.60
2017-08-28T23:54:29.045Z,10.53
2017-08-28T23:56:55.793Z,10.50
2017-08-28T23:59:22.560Z,9.80
